createdAt,value
2022-11-26T00:00:31.075Z,5.00
2022-11-26T00:02:57.879Z,5.00
2022-11-26T00:05:24.685Z,5.10
2022-11-26T00:07:54.927Z,5.10
2022-11-26T00:10:31.707Z,5.10
2022-11-26T00:12:58.377Z,5.10
2022-11-26T00:15:29.524Z,5.10
2022-11-26T00:17:56.419Z,5.20
2022-11-26T00:20:32.152Z,5.20
2022-11-26T00:23:02.345Z,5.20
2022-11-26T00:25:41.264Z,5.20
2022-11-26T00:28:23.077Z,5.30
2022-11-26T00:30:49.836Z,5.30
2022-11-26T00:33:16.545Z,5.30
2022-11-26T00:35:43.260Z,5.30
2022-11-26T00:38:12.718Z,5.40
2022-11-26T00:40:39.398Z,5.40
2022-11-26T00:43:06.369Z,5.40
2022-11-26T00:45:33.071Z,5.40
2022-11-26T00:48:01.714Z,5.40
2022-11-26T00:50:36.406Z,5.50
2022-11-26T00:53:03.123Z,5.50
2022-11-26T00:55:40.984Z,5.50
2022-11-26T00:58:09.876Z,5.50
2022-11-26T01:00:36.661Z,5.60
2022-11-26T01:03:03.506Z,5.50
2022-11-26T01:05:33.256Z,5.60
2022-11-26T01:08:02.466Z,5.60
2022-11-26T01:10:31.048Z,5.60
2022-11-26T01:13:05.028Z,5.70
2022-11-26T01:15:32.596Z,5.70
2022-11-26T01:18:08.230Z,5.80
2022-11-26T01:20:34.951Z,5.90
2022-11-26T01:23:02.129Z,5.90
2022-11-26T01:25:29.088Z,5.90
2022-11-26T01:27:55.785Z,6.00
2022-11-26T01:30:26.177Z,6.10
2022-11-26T01:32:52.802Z,6.20
2022-11-26T01:35:19.948Z,6.20
2022-11-26T01:37:46.777Z,6.30
2022-11-26T01:40:25.790Z,6.40
2022-11-26T01:42:59.073Z,6.40
2022-11-26T01:45:25.838Z,6.40
2022-11-26T01:47:52.756Z,6.50
2022-11-26T01:50:31.102Z,6.50
2022-11-26T01:53:14.559Z,6.50
2022-11-26T01:55:45.118Z,6.60
2022-11-26T01:58:13.044Z,6.60
2022-11-26T02:00:39.782Z,6.60
2022-11-26T02:03:06.495Z,6.70
2022-11-26T02:05:36.747Z,6.70
2022-11-26T02:08:03.432Z,6.70
2022-11-26T02:10:30.112Z,6.70
2022-11-26T02:12:56.771Z,6.70
2022-11-26T02:15:23.439Z,6.70
2022-11-26T02:17:55.707Z,6.70
2022-11-26T02:20:47.346Z,6.80
2022-11-26T02:23:35.726Z,6.80
2022-11-26T02:26:44.914Z,6.80
2022-11-26T02:29:16.967Z,6.80
2022-11-26T02:32:00.978Z,6.80
2022-11-26T02:34:58.366Z,6.80
2022-11-26T02:37:34.067Z,6.80
2022-11-26T02:40:00.783Z,6.80
2022-11-26T02:42:31.268Z,6.80
2022-11-26T02:45:01.280Z,6.80
2022-11-26T02:47:28.409Z,6.80
2022-11-26T02:49:56.877Z,6.80
2022-11-26T02:52:23.666Z,6.80
2022-11-26T02:54:50.357Z,6.80
2022-11-26T02:57:18.636Z,6.80
2022-11-26T02:59:45.352Z,6.80
2022-11-26T03:02:24.709Z,6.80
2022-11-26T03:04:52.817Z,6.80
2022-11-26T03:07:19.551Z,6.90
2022-11-26T03:09:51.839Z,6.80
2022-11-26T03:12:18.623Z,6.90
2022-11-26T03:14:45.567Z,6.80
2022-11-26T03:17:12.359Z,6.90
2022-11-26T03:19:39.046Z,6.90
2022-11-26T03:22:05.778Z,6.80
2022-11-26T03:24:32.580Z,6.80
2022-11-26T03:26:59.337Z,6.90
2022-11-26T03:29:26.062Z,6.90
2022-11-26T03:31:52.777Z,6.80
2022-11-26T03:34:19.966Z,6.90
2022-11-26T03:36:46.648Z,6.90
2022-11-26T03:39:13.354Z,6.90
2022-11-26T03:41:42.411Z,6.90
2022-11-26T03:44:09.060Z,6.80
2022-11-26T03:46:35.731Z,6.90
2022-11-26T03:49:02.410Z,6.90
2022-11-26T03:51:29.125Z,6.90
2022-11-26T03:53:55.781Z,6.90
2022-11-26T03:56:22.451Z,6.90
2022-11-26T03:58:49.155Z,6.90
2022-11-26T04:01:15.879Z,6.80
2022-11-26T04:03:42.620Z,6.90
2022-11-26T04:06:09.288Z,6.90
2022-11-26T04:08:35.956Z,6.90
2022-11-26T04:11:02.630Z,6.90
2022-11-26T04:13:29.340Z,6.90
2022-11-26T04:15:56.010Z,6.90
2022-11-26T04:18:22.666Z,6.90
2022-11-26T04:20:53.067Z,6.90
2022-11-26T04:23:20.294Z,6.90
2022-11-26T04:25:46.973Z,6.90
2022-11-26T04:28:15.015Z,7.00
2022-11-26T04:30:42.318Z,7.00
2022-11-26T04:33:09.054Z,7.00
2022-11-26T04:35:35.799Z,7.00
2022-11-26T04:38:02.461Z,7.00
2022-11-26T04:40:29.120Z,7.00
2022-11-26T04:42:55.796Z,7.00
2022-11-26T04:45:22.457Z,7.00
2022-11-26T04:47:49.107Z,7.00
2022-11-26T04:50:15.784Z,7.00
2022-11-26T04:52:42.518Z,7.00
2022-11-26T04:55:09.605Z,7.00
2022-11-26T04:57:36.248Z,7.00
2022-11-26T05:00:03.230Z,7.10
2022-11-26T05:02:30.005Z,7.10
2022-11-26T05:04:56.725Z,7.10
2022-11-26T05:07:23.434Z,7.10
2022-11-26T05:09:50.168Z,7.10
2022-11-26T05:12:16.815Z,7.10
2022-11-26T05:14:43.491Z,7.10
2022-11-26T05:17:10.166Z,7.10
2022-11-26T05:19:36.865Z,7.10
2022-11-26T05:22:03.534Z,7.10
2022-11-26T05:24:30.165Z,7.10
2022-11-26T05:26:57.503Z,7.10
2022-11-26T05:29:24.583Z,7.10
2022-11-26T05:31:51.412Z,7.10
2022-11-26T05:34:18.357Z,7.10
2022-11-26T05:36:45.069Z,7.10
2022-11-26T05:39:11.737Z,7.10
2022-11-26T05:41:38.393Z,7.20
2022-11-26T05:44:05.137Z,7.20
2022-11-26T05:46:31.839Z,7.10
2022-11-26T05:48:58.540Z,7.10
2022-11-26T05:51:25.261Z,7.20
2022-11-26T05:53:51.925Z,7.10
2022-11-26T05:56:18.590Z,7.10
2022-11-26T05:58:45.235Z,7.10
2022-11-26T06:01:11.974Z,7.10
2022-11-26T06:03:38.963Z,7.10
2022-11-26T06:06:05.868Z,7.10
2022-11-26T06:08:32.527Z,7.10
2022-11-26T06:10:59.225Z,7.10
2022-11-26T06:13:25.924Z,7.10
2022-11-26T06:15:52.584Z,7.10
2022-11-26T06:18:19.305Z,7.10
2022-11-26T06:20:46.015Z,7.10
2022-11-26T06:23:12.729Z,7.20
2022-11-26T06:25:42.492Z,7.10
2022-11-26T06:28:09.231Z,7.10
2022-11-26T06:30:35.911Z,7.10
2022-11-26T06:33:02.596Z,7.10
2022-11-26T06:35:29.307Z,7.10
2022-11-26T06:37:56.003Z,7.10
2022-11-26T06:40:22.912Z,7.10
2022-11-26T06:42:53.493Z,7.10
2022-11-26T06:45:20.856Z,7.10
2022-11-26T06:47:47.830Z,7.10
2022-11-26T06:50:15.370Z,7.10
2022-11-26T06:52:42.046Z,7.10
2022-11-26T06:55:09.198Z,7.10
2022-11-26T06:57:35.892Z,7.10
2022-11-26T07:00:03.517Z,7.10
2022-11-26T07:02:30.223Z,7.10
2022-11-26T07:04:56.956Z,7.10
2022-11-26T07:07:23.712Z,7.20
2022-11-26T07:09:50.647Z,7.20
2022-11-26T07:12:17.407Z,7.10
2022-11-26T07:14:44.067Z,7.10
2022-11-26T07:17:10.817Z,7.10
2022-11-26T07:19:37.516Z,7.10
2022-11-26T07:22:04.218Z,7.10
2022-11-26T07:24:30.913Z,7.10
2022-11-26T07:26:57.638Z,7.10
2022-11-26T07:29:24.278Z,7.10
2022-11-26T07:31:50.983Z,7.10
2022-11-26T07:34:17.674Z,7.10
2022-11-26T07:36:45.084Z,7.10
2022-11-26T07:39:11.858Z,7.10
2022-11-26T07:41:38.832Z,7.10
2022-11-26T07:44:05.585Z,7.10
2022-11-26T07:46:32.278Z,7.10
2022-11-26T07:48:58.965Z,7.10
2022-11-26T07:51:27.495Z,7.10
2022-11-26T07:53:54.374Z,7.10
2022-11-26T07:56:21.095Z,7.20
2022-11-26T07:58:47.883Z,7.10
2022-11-26T08:01:16.343Z,7.10
2022-11-26T08:03:44.468Z,7.10
2022-11-26T08:06:12.655Z,7.20
2022-11-26T08:08:39.363Z,7.20
2022-11-26T08:11:17.427Z,7.20
2022-11-26T08:13:44.616Z,7.20
2022-11-26T08:16:11.551Z,7.20
2022-11-26T08:18:38.391Z,7.20
2022-11-26T08:21:05.324Z,7.20
2022-11-26T08:23:32.353Z,7.30
2022-11-26T08:26:21.512Z,7.20
2022-11-26T08:28:46.360Z,7.30
2022-11-26T08:31:14.091Z,7.30
2022-11-26T08:33:40.830Z,7.20
2022-11-26T08:36:08.752Z,7.20
2022-11-26T08:38:35.632Z,7.30
2022-11-26T08:41:04.069Z,7.30
2022-11-26T08:46:21.968Z,7.30
2022-11-26T08:48:49.032Z,7.30
2022-11-26T08:51:17.188Z,7.40
2022-11-26T08:53:47.406Z,7.50
2022-11-26T08:56:14.103Z,7.50
2022-11-26T08:58:42.574Z,7.50
2022-11-26T09:01:26.897Z,7.50
2022-11-26T09:03:55.033Z,7.50
2022-11-26T09:06:22.610Z,7.50
2022-11-26T09:09:07.819Z,7.50
2022-11-26T09:11:36.416Z,7.60
2022-11-26T09:14:03.156Z,7.60
2022-11-26T09:16:29.916Z,7.60
2022-11-26T09:18:58.577Z,7.70
2022-11-26T09:21:25.232Z,7.70
2022-11-26T09:23:51.916Z,7.60
2022-11-26T09:26:21.646Z,7.70
2022-11-26T09:28:48.774Z,7.70
2022-11-26T09:31:15.573Z,7.70
2022-11-26T09:33:42.330Z,7.80
2022-11-26T09:36:10.606Z,7.80
2022-11-26T09:38:37.391Z,7.80
2022-11-26T09:41:08.055Z,7.80
2022-11-26T09:43:55.889Z,7.70
2022-11-26T09:46:27.305Z,7.70
2022-11-26T09:48:54.039Z,7.80
2022-11-26T09:51:20.926Z,7.90
2022-11-26T09:53:48.883Z,8.00
2022-11-26T09:56:21.121Z,8.00
2022-11-26T09:58:49.046Z,8.00
2022-11-26T10:01:19.362Z,8.10
2022-11-26T10:03:46.064Z,8.10
2022-11-26T10:06:38.264Z,8.10
2022-11-26T10:09:55.466Z,8.00
2022-11-26T10:13:03.446Z,8.10
2022-11-26T10:15:57.214Z,8.10
2022-11-26T10:18:51.838Z,8.00
2022-11-26T10:21:32.402Z,8.00
2022-11-26T10:24:25.233Z,8.00
2022-11-26T10:26:51.936Z,7.90
2022-11-26T10:29:29.044Z,7.90
2022-11-26T10:32:35.016Z,7.90
2022-11-26T10:35:01.861Z,7.90
2022-11-26T10:37:31.336Z,7.80
2022-11-26T10:40:17.719Z,7.80
2022-11-26T10:42:51.688Z,7.80
2022-11-26T10:45:48.445Z,7.80
2022-11-26T10:48:28.535Z,7.80
2022-11-26T10:51:06.318Z,7.90
2022-11-26T10:53:55.003Z,7.90
2022-11-26T10:56:42.243Z,7.90
2022-11-26T10:59:41.482Z,7.90
2022-11-26T11:02:20.631Z,7.90
2022-11-26T11:05:23.620Z,7.90
2022-11-26T11:07:53.764Z,8.00
2022-11-26T11:10:26.972Z,8.00
2022-11-26T11:13:11.925Z,8.00
2022-11-26T11:15:40.268Z,8.00
2022-11-26T11:18:13.513Z,8.00
2022-11-26T11:20:44.128Z,8.10
2022-11-26T11:23:10.832Z,8.00
2022-11-26T11:25:39.683Z,8.10
2022-11-26T11:28:12.736Z,8.10
2022-11-26T11:30:40.366Z,8.10
2022-11-26T11:33:23.968Z,8.10
2022-11-26T11:36:16.746Z,8.10
2022-11-26T11:38:50.566Z,8.10
2022-11-26T11:41:29.694Z,8.00
2022-11-26T11:44:02.065Z,8.00
2022-11-26T11:46:42.741Z,8.00
2022-11-26T11:49:32.156Z,8.00
2022-11-26T11:52:33.630Z,8.00
2022-11-26T11:55:08.481Z,8.00
2022-11-26T11:57:45.451Z,7.90
2022-11-26T12:00:13.913Z,7.90
2022-11-26T12:02:55.999Z,7.90
2022-11-26T12:05:40.965Z,7.90
2022-11-26T12:08:32.804Z,7.90
2022-11-26T12:11:12.821Z,7.90
2022-11-26T12:13:53.198Z,7.90
2022-11-26T12:16:20.243Z,7.80
2022-11-26T12:18:52.381Z,7.80
2022-11-26T12:21:25.235Z,7.80
2022-11-26T12:24:06.743Z,7.80
2022-11-26T12:26:36.617Z,7.80
2022-11-26T12:29:20.242Z,7.80
2022-11-26T12:31:51.498Z,7.80
2022-11-26T12:34:23.873Z,7.70
2022-11-26T12:37:20.458Z,7.70
2022-11-26T12:39:56.769Z,7.60
2022-11-26T12:42:55.034Z,7.60
2022-11-26T12:45:37.988Z,7.60
2022-11-26T12:48:10.949Z,7.60
2022-11-26T12:50:41.952Z,7.60
2022-11-26T12:53:23.011Z,7.60
2022-11-26T12:56:06.812Z,7.60
2022-11-26T12:58:52.364Z,7.70
2022-11-26T13:01:19.155Z,7.60
2022-11-26T13:03:45.848Z,7.60
2022-11-26T13:06:35.021Z,7.60
2022-11-26T13:09:26.906Z,7.50
2022-11-26T13:12:16.710Z,7.50
2022-11-26T13:14:44.760Z,7.50
2022-11-26T13:17:18.432Z,7.50
2022-11-26T13:20:09.198Z,7.60
2022-11-26T13:22:38.752Z,7.50
2022-11-26T13:25:23.490Z,7.50
2022-11-26T13:27:59.906Z,7.50
2022-11-26T13:30:42.133Z,7.50
2022-11-26T13:33:23.873Z,7.50
2022-11-26T13:36:24.375Z,7.40
2022-11-26T13:39:04.487Z,7.40
2022-11-26T13:41:40.042Z,7.40
2022-11-26T13:44:20.398Z,7.40
2022-11-26T13:46:48.716Z,7.40
2022-11-26T13:49:38.211Z,7.40
2022-11-26T13:52:30.750Z,7.50
2022-11-26T13:55:04.490Z,7.50
2022-11-26T13:57:40.596Z,7.50
2022-11-26T14:00:09.646Z,7.50
2022-11-26T14:02:47.303Z,7.50
2022-11-26T14:05:15.033Z,7.50
2022-11-26T14:07:42.256Z,7.40
2022-11-26T14:10:28.347Z,7.30
2022-11-26T14:13:04.259Z,7.30
2022-11-26T14:15:43.174Z,7.30
2022-11-26T14:18:10.871Z,7.30
2022-11-26T14:21:03.966Z,7.20
2022-11-26T14:23:47.370Z,7.30
2022-11-26T14:26:16.827Z,7.30
2022-11-26T14:28:43.602Z,7.30
2022-11-26T14:31:24.584Z,7.30
2022-11-26T14:33:52.349Z,7.40
2022-11-26T14:36:23.896Z,7.40
2022-11-26T14:39:07.159Z,7.30
2022-11-26T14:41:43.074Z,7.40
2022-11-26T14:44:16.792Z,7.30
2022-11-26T14:46:48.492Z,7.30
2022-11-26T14:49:18.410Z,7.30
2022-11-26T14:51:45.552Z,7.40
2022-11-26T14:54:18.591Z,7.40
2022-11-26T14:56:46.567Z,7.40
2022-11-26T14:59:15.776Z,7.40
2022-11-26T15:01:46.064Z,7.40
2022-11-26T15:04:26.833Z,7.50
2022-11-26T15:06:53.545Z,7.40
2022-11-26T15:09:27.162Z,7.40
2022-11-26T15:12:06.764Z,7.40
2022-11-26T15:14:50.337Z,7.30
2022-11-26T15:17:17.815Z,7.30
2022-11-26T15:19:44.527Z,7.20
2022-11-26T15:22:31.436Z,7.20
2022-11-26T15:24:58.364Z,7.20
2022-11-26T15:27:38.886Z,7.20
2022-11-26T15:30:26.947Z,7.20
2022-11-26T15:33:01.538Z,7.20
2022-11-26T15:35:28.783Z,7.20
2022-11-26T15:37:55.565Z,7.20
2022-11-26T15:40:26.396Z,7.20
2022-11-26T15:42:57.818Z,7.20
2022-11-26T15:45:30.864Z,7.20
2022-11-26T15:47:57.898Z,7.20
2022-11-26T15:50:32.618Z,7.10
2022-11-26T15:53:16.537Z,7.10
2022-11-26T15:55:46.013Z,7.10
2022-11-26T15:58:20.696Z,7.20
2022-11-26T16:00:51.444Z,7.20
2022-11-26T16:03:42.051Z,7.10
2022-11-26T16:06:23.838Z,7.10
2022-11-26T16:09:11.521Z,7.00
2022-11-26T16:11:44.168Z,7.00
2022-11-26T16:14:28.151Z,7.00
2022-11-26T16:16:55.360Z,7.00
2022-11-26T16:19:22.624Z,7.10
2022-11-26T16:21:50.300Z,7.00
2022-11-26T16:24:28.419Z,7.00
2022-11-26T16:27:18.096Z,7.00
2022-11-26T16:29:45.169Z,7.00
2022-11-26T16:32:12.881Z,6.90
2022-11-26T16:34:39.816Z,6.90
2022-11-26T16:37:22.592Z,6.90
2022-11-26T16:39:50.299Z,7.00
2022-11-26T16:42:18.723Z,6.90
2022-11-26T16:44:45.404Z,6.90
2022-11-26T16:47:20.367Z,6.90
2022-11-26T16:49:47.077Z,6.90
2022-11-26T16:52:15.339Z,6.90
2022-11-26T16:54:42.441Z,6.80
2022-11-26T16:57:17.036Z,6.80
2022-11-26T16:59:44.294Z,6.80
2022-11-26T17:02:16.252Z,6.80
2022-11-26T17:04:43.372Z,6.80
2022-11-26T17:07:14.648Z,6.80
2022-11-26T17:09:41.999Z,6.80
2022-11-26T17:12:16.150Z,6.80
2022-11-26T17:14:43.273Z,6.80
2022-11-26T17:17:12.629Z,6.70
2022-11-26T17:19:39.993Z,6.60
2022-11-26T17:22:10.073Z,6.60
2022-11-26T17:24:37.304Z,6.60
2022-11-26T17:27:05.817Z,6.60
2022-11-26T17:29:32.534Z,6.60
2022-11-26T17:31:59.247Z,6.40
2022-11-26T17:34:26.132Z,6.40
2022-11-26T17:36:54.589Z,6.40
2022-11-26T17:39:21.247Z,6.30
2022-11-26T17:41:47.934Z,6.20
2022-11-26T17:44:14.629Z,6.20
2022-11-26T17:47:09.063Z,6.30
2022-11-26T17:49:28.378Z,6.30
2022-11-26T17:51:55.048Z,6.40
2022-11-26T17:54:21.750Z,6.40
2022-11-26T17:56:48.445Z,6.40
2022-11-26T17:59:18.302Z,6.40
2022-11-26T18:01:47.249Z,6.40
2022-11-26T18:04:13.989Z,6.50
2022-11-26T18:06:49.194Z,6.40
2022-11-26T18:09:15.902Z,6.50
2022-11-26T18:11:49.525Z,6.50
2022-11-26T18:14:16.669Z,6.40
2022-11-26T18:16:43.573Z,6.40
2022-11-26T18:19:11.554Z,6.40
2022-11-26T18:21:38.228Z,6.40
2022-11-26T18:24:05.492Z,6.40
2022-11-26T18:26:32.413Z,6.40
2022-11-26T18:29:01.631Z,6.40
2022-11-26T18:31:28.619Z,6.40
2022-11-26T18:33:55.317Z,6.40
2022-11-26T18:36:22.004Z,6.30
2022-11-26T18:38:48.680Z,6.30
2022-11-26T18:41:15.449Z,6.30
2022-11-26T18:43:42.160Z,6.40
2022-11-26T18:46:15.237Z,6.40
2022-11-26T18:48:43.512Z,6.40
2022-11-26T18:51:10.288Z,6.30
2022-11-26T18:53:37.061Z,6.30
2022-11-26T18:56:08.376Z,6.30
2022-11-26T18:58:35.123Z,6.20
2022-11-26T19:01:02.015Z,6.10
2022-11-26T19:03:28.928Z,6.00
2022-11-26T19:05:55.826Z,6.00
2022-11-26T19:08:23.456Z,6.10
2022-11-26T19:10:50.176Z,6.10
2022-11-26T19:13:16.983Z,6.10
2022-11-26T19:15:44.334Z,6.10
2022-11-26T19:18:14.072Z,6.10
2022-11-26T19:20:48.621Z,6.10
2022-11-26T19:23:15.349Z,6.10
2022-11-26T19:25:42.121Z,6.10
2022-11-26T19:28:08.775Z,6.10
2022-11-26T19:30:35.477Z,6.10
2022-11-26T19:33:02.656Z,6.10
2022-11-26T19:35:29.426Z,6.10
2022-11-26T19:37:56.163Z,6.10
2022-11-26T19:40:22.892Z,6.20
2022-11-26T19:42:49.547Z,6.20
2022-11-26T19:45:16.307Z,6.10
2022-11-26T19:47:43.187Z,6.10
2022-11-26T19:50:10.043Z,6.10
2022-11-26T19:52:36.732Z,6.10
2022-11-26T19:55:04.319Z,6.10
2022-11-26T19:57:31.021Z,6.20
2022-11-26T19:59:57.816Z,6.20
2022-11-26T20:02:24.733Z,6.20
2022-11-26T20:04:51.399Z,6.20
2022-11-26T20:07:18.095Z,6.20
2022-11-26T20:09:44.847Z,6.10
2022-11-26T20:12:11.539Z,6.10
2022-11-26T20:14:38.208Z,6.10
2022-11-26T20:17:04.964Z,6.10
2022-11-26T20:19:31.810Z,6.00
2022-11-26T20:21:58.485Z,6.00
2022-11-26T20:24:25.126Z,6.00
2022-11-26T20:26:51.870Z,6.00
2022-11-26T20:29:19.173Z,5.90
2022-11-26T20:31:47.476Z,5.80
2022-11-26T20:34:18.516Z,5.70
2022-11-26T20:36:45.196Z,5.70
2022-11-26T20:39:18.168Z,5.70
2022-11-26T20:41:44.912Z,5.70
2022-11-26T20:44:12.027Z,5.80
2022-11-26T20:46:39.040Z,5.80
2022-11-26T20:49:05.846Z,5.90
2022-11-26T20:51:32.734Z,5.90
2022-11-26T20:54:00.459Z,5.90
2022-11-26T20:56:27.414Z,6.00
2022-11-26T20:58:54.388Z,6.00
2022-11-26T21:01:25.625Z,5.90
2022-11-26T21:03:52.583Z,5.90
2022-11-26T21:06:24.500Z,5.90
2022-11-26T21:08:57.282Z,5.90
2022-11-26T21:11:23.968Z,5.90
2022-11-26T21:13:50.647Z,5.90
2022-11-26T21:16:18.961Z,5.90
2022-11-26T21:18:46.049Z,5.90
2022-11-26T21:21:17.247Z,5.80
2022-11-26T21:23:44.370Z,5.80
2022-11-26T21:26:14.814Z,5.80
2022-11-26T21:28:41.468Z,5.80
2022-11-26T21:31:10.076Z,5.90
2022-11-26T21:33:36.853Z,5.90
2022-11-26T21:36:07.723Z,5.90
2022-11-26T21:38:34.565Z,6.00
2022-11-26T21:41:05.814Z,5.90
2022-11-26T21:43:32.468Z,6.00
2022-11-26T21:46:06.483Z,6.00
2022-11-26T21:48:33.540Z,6.00
2022-11-26T21:51:00.224Z,6.00
2022-11-26T21:53:26.936Z,6.00
2022-11-26T21:55:53.845Z,6.00
2022-11-26T21:58:20.533Z,6.00
2022-11-26T22:00:47.173Z,6.00
2022-11-26T22:03:13.931Z,5.90
2022-11-26T22:05:41.673Z,5.90
2022-11-26T22:08:08.457Z,5.90
2022-11-26T22:10:36.298Z,6.00
2022-11-26T22:13:03.131Z,5.90
2022-11-26T22:15:29.772Z,5.90
2022-11-26T22:17:56.947Z,5.90
2022-11-26T22:20:23.595Z,5.90
2022-11-26T22:22:50.280Z,5.90
2022-11-26T22:25:17.099Z,5.80
2022-11-26T22:27:43.760Z,5.80
2022-11-26T22:30:10.831Z,5.80
2022-11-26T22:32:37.469Z,5.80
2022-11-26T22:35:04.356Z,5.80
2022-11-26T22:37:31.017Z,5.80
2022-11-26T22:39:57.679Z,5.70
2022-11-26T22:42:24.375Z,5.70
2022-11-26T22:44:51.083Z,5.70
2022-11-26T22:47:18.837Z,5.80
2022-11-26T22:49:45.497Z,5.80
2022-11-26T22:52:12.159Z,5.90
2022-11-26T22:54:38.799Z,5.90
2022-11-26T22:57:05.454Z,5.90
2022-11-26T22:59:32.228Z,5.90
2022-11-26T23:01:58.930Z,5.90
2022-11-26T23:04:25.583Z,6.00
2022-11-26T23:06:52.248Z,6.00
2022-11-26T23:09:18.986Z,6.00
2022-11-26T23:11:45.689Z,6.00
2022-11-26T23:14:12.391Z,6.00
2022-11-26T23:16:40.093Z,6.00
2022-11-26T23:19:07.265Z,5.90
2022-11-26T23:21:36.134Z,6.00
2022-11-26T23:24:02.817Z,5.90
2022-11-26T23:26:31.378Z,6.00
2022-11-26T23:28:59.227Z,6.00
2022-11-26T23:31:33.867Z,5.90
2022-11-26T23:34:00.697Z,5.90
2022-11-26T23:36:27.704Z,5.90
2022-11-26T23:38:54.600Z,5.90
2022-11-26T23:41:21.340Z,5.90
2022-11-26T23:43:48.179Z,6.00
2022-11-26T23:46:17.981Z,6.00
2022-11-26T23:48:44.720Z,6.00
2022-11-26T23:51:17.052Z,6.00
2022-11-26T23:53:44.602Z,6.10
2022-11-26T23:56:16.840Z,6.00
2022-11-26T23:58:43.522Z,6.00
